Latest Weather Observations for Frederick Reef

IDQ60801

Issued at 3:02 am EST Saturday 18 November 2017 (issued every 30 minutes, with the page automatically refreshed every 10 minutes)

About weather observations | Map of weather stations | Latest weather observations for QLD | Other Formats
Station Details ID: 200701 Name: FREDERICK REEF Lat: -20.94 Lon: 154.40 Height: 4.9 m
Data from the previous 72 hours. | See also: Recent months for locations in Queensland
Date/Time
EST
Temp
°C
App
Temp
°C
Dew
Point
°C
Rel
Hum
%
Delta-T
°C
Wind Press
QNH
hPa
Press
MSL
hPa
Rain since
9am
mm
Dir  Spd
km/h
Gust
km/h
Spd
kts
Gust
kts
18/02:59am 24.6 - - - - ESE 35 43 19 23 1011.3 - -
18/02:29am 24.5 - - - - E 39 44 21 24 1011.1 - -
18/02:00am 24.6 - - - - ESE 39 - 21 - - 1011.4 -
18/01:29am 24.5 - - - - E 39 46 21 25 1011.6 - -
18/01:00am 24.5 - - - - ESE 39 - 21 - - 1011.7 -
18/12:59am 24.4 - - - - ESE 41 50 22 27 1011.8 - -
18/12:29am 24.3 - - - - E 43 48 23 26 1012.1 - -
18/12:00am 24.7 - - - - E 37 - 20 - - 1012.3 -
 
Date/Time
EST
Temp
°C
App
Temp
°C
Dew
Point
°C
Rel
Hum
%
Delta-T
°C
Wind Press
QNH
hPa
Press
MSL
hPa
Rain since
9am
mm
Dir  Spd
km/h
Gust
km/h
Spd
kts
Gust
kts
17/11:59pm 24.5 - - - - E 39 44 21 24 1012.3 - -
17/11:29pm 24.5 - - - - E 43 48 23 26 1012.6 - -
17/11:00pm 24.6 - - - - E 37 - 20 - - 1012.8 -
17/10:59pm 24.8 - - - - E 37 43 20 23 1013.1 - -
17/10:29pm 24.5 - - - - E 39 46 21 25 1013.0 - -
17/10:00pm 24.6 - - - - ESE 41 - 22 - - 1013.2 -
17/09:59pm 24.7 - - - - E 41 46 22 25 1013.2 - -
17/09:29pm 24.6 - - - - ESE 41 46 22 25 1013.2 - -
17/09:00pm 24.5 - - - - ESE 39 - 21 - - 1013.2 -
17/08:59pm 24.4 - - - - ESE 39 46 21 25 1013.2 - -
17/08:29pm 24.3 - - - - ESE 41 46 22 25 1013.0 - -
17/08:00pm 24.4 - - - - ESE 39 - 21 - - 1013.0 -
17/07:59pm 24.5 - - - - ESE 39 46 21 25 1013.1 - -
17/07:29pm 24.4 - - - - ESE 41 46 22 25 1013.0 - -
17/07:00pm 24.5 - - - - ESE 39 - 21 - - 1012.9 -
17/06:59pm 24.6 - - - - ESE 39 43 21 23 1013.0 - -
17/06:29pm 24.7 - - - - ESE 37 43 20 23 1013.1 - -
17/06:00pm 24.6 - - - - SSE 33 - 18 - - 1013.0 -
17/05:59pm 24.7 - - - - SE 35 39 19 21 1013.1 - -
17/05:29pm 24.6 - - - - SE 37 43 20 23 1012.9 - -
17/05:00pm 24.7 - - - - SE 37 - 20 - - 1012.7 -
17/04:59pm 24.5 - - - - SE 37 43 20 23 1012.7 - -
17/04:29pm 24.5 - - - - SE 39 43 21 23 1012.5 - -
17/04:00pm 24.4 - - - - SE 39 - 21 - - 1012.3 -
17/03:59pm 24.5 - - - - SE 41 44 22 24 1012.5 - -
17/03:29pm 24.5 - - - - SE 39 44 21 24 1012.4 - -
17/03:00pm 24.6 - - - - SE 39 - 21 - - 1012.4 -
17/02:59pm 24.6 - - - - SE 37 44 20 24 1012.6 - -
17/02:29pm 24.6 - - - - SE 37 43 20 23 1012.9 - -
17/02:00pm 24.6 - - - - SE 35 - 19 - - 1012.8 -
17/01:59pm 24.6 - - - - SE 33 41 18 22 1012.9 - -
17/01:29pm 24.6 - - - - SE 33 39 18 21 1013.1 - -
17/01:00pm 24.5 - - - - SE 33 - 18 - - 1013.2 -
17/12:59pm 24.5 - - - - SE 33 37 18 20 1013.3 - -
17/12:29pm 24.5 - - - - SE 32 35 17 19 1013.7 - -
17/12:00pm 24.4 - - - - SE 30 - 16 - - 1013.8 -
17/11:59am 24.4 - - - - SE 32 35 17 19 1013.9 - -
17/11:29am 24.4 - - - - SE 32 39 17 21 1014.0 - -
17/11:00am 24.4 - - - - ESE 32 - 17 - - 1014.2 -
17/10:59am 24.4 - - - - SE 32 35 17 19 1014.3 - -
17/10:29am 24.3 - - - - SE 33 37 18 20 1014.4 - -
17/10:00am 24.4 - - - - SE 33 - 18 - - 1014.4 -
17/09:59am 24.3 - - - - SE 32 37 17 20 1014.6 - -
17/09:29am 24.5 - - - - ESE 32 35 17 19 1014.4 - -
17/09:00am 24.3 - - - - SE 33 - 18 - - 1014.2 -
17/08:59am 24.4 - - - - SE 32 37 17 20 1014.4 - -
17/08:29am 24.4 - - - - SE 33 39 18 21 1014.5 - -
17/08:00am 24.4 - - - - ESE 32 - 17 - - 1014.3 -
17/07:59am 24.4 - - - - ESE 32 35 17 19 1014.3 - -
17/07:29am 24.3 - - - - SE 32 37 17 20 1014.2 - -
17/07:00am 24.2 - - - - ESE 32 - 17 - - 1013.8 -
17/06:59am 24.3 - - - - ESE 32 37 17 20 1014.0 - -
17/06:29am 24.1 - - - - SE 33 39 18 21 1013.6 - -
17/06:00am 24.2 - - - - ESE 33 - 18 - - 1013.2 -
17/05:59am 24.2 - - - - ESE 35 41 19 22 1013.2 - -
17/05:29am 24.0 - - - - SE 35 39 19 21 1013.2 - -
17/05:00am 23.9 - - - - SE 32 - 17 - - 1013.0 -
17/04:59am 23.8 - - - - SE 32 35 17 19 1013.0 - -
17/04:29am 23.9 - - - - ESE 28 33 15 18 1012.9 - -
17/04:00am 23.8 - - - - ESE 32 - 17 - - 1012.6 -
17/03:59am 23.9 - - - - ESE 30 33 16 18 1012.7 - -
17/03:29am 23.9 - - - - SE 30 33 16 18 1012.6 - -
17/03:00am 23.9 - - - - SE 30 - 16 - - 1012.6 -
17/02:59am 23.8 - - - - SE 32 35 17 19 1012.7 - -
17/02:29am 23.8 - - - - SE 30 35 16 19 1012.8 - -
17/02:00am 23.9 - - - - SE 32 - 17 - - 1012.7 -
17/01:59am 24.0 - - - - SE 33 37 18 20 1012.8 - -
17/01:29am 24.0 - - - - SE 33 37 18 20 1013.0 - -
17/01:00am 23.9 - - - - SE 33 - 18 - - 1013.0 -
17/12:59am 23.9 - - - - SE 35 41 19 22 1013.1 - -
17/12:29am 24.0 - - - - SE 35 41 19 22 1013.4 - -
17/12:00am 24.0 - - - - SE 33 - 18 - - 1013.5 -
 
Date/Time
EST
Temp
°C
App
Temp
°C
Dew
Point
°C
Rel
Hum
%
Delta-T
°C
Wind Press
QNH
hPa
Press
MSL
hPa
Rain since
9am
mm
Dir  Spd
km/h
Gust
km/h
Spd
kts
Gust
kts
16/11:59pm 24.0 - - - - SE 35 41 19 22 1013.8 - -
16/11:29pm 24.1 - - - - SE 35 39 19 21 1014.0 - -
16/11:00pm 24.1 - - - - SE 35 - 19 - - 1014.1 -
16/10:59pm 24.1 - - - - SE 37 43 20 23 1014.2 - -
16/10:29pm 24.2 - - - - SE 35 41 19 22 1014.3 - -
16/10:00pm 24.3 - - - - ESE 37 - 20 - - 1014.1 -
16/09:59pm 24.3 - - - - ESE 39 44 21 24 1014.2 - -
16/09:29pm 24.3 - - - - SE 39 43 21 23 1014.4 - -
16/09:00pm 24.3 - - - - SE 39 - 21 - - 1014.3 -
16/08:59pm 24.3 - - - - SE 39 44 21 24 1014.3 - -
16/08:29pm 24.3 - - - - SE 41 46 22 25 1014.0 - -
16/08:00pm 24.5 - - - - SE 41 - 22 - - 1013.7 -
16/07:59pm 24.4 - - - - SE 41 46 22 25 1013.8 - -
16/07:29pm 24.4 - - - - SE 41 44 22 24 1013.6 - -
16/07:00pm 24.4 - - - - SE 39 - 21 - - 1013.6 -
16/06:59pm 24.5 - - - - SE 39 44 21 24 1013.6 - -
16/06:29pm 24.2 - - - - SE 39 43 21 23 1013.4 - -
16/06:00pm 24.4 - - - - SSE 41 - 22 - - 1013.2 -
16/05:59pm 24.3 - - - - SSE 41 46 22 25 1013.3 - -
16/05:29pm 24.2 - - - - SE 35 41 19 22 1013.2 - -
16/05:00pm 24.3 - - - - SE 37 - 20 - - 1012.8 -
16/04:59pm 24.3 - - - - SE 37 44 20 24 1012.8 - -
16/04:29pm 24.2 - - - - SSE 33 39 18 21 1012.6 - -
16/04:00pm 24.3 - - - - SE 35 - 19 - - 1012.2 -
16/03:59pm 24.1 - - - - SE 35 39 19 21 1012.3 - -
16/03:29pm 24.2 - - - - SE 35 39 19 21 1012.4 - -
16/03:00pm 24.2 - - - - SE 32 - 17 - - 1012.4 -
16/02:59pm 24.2 - - - - SE 32 35 17 19 1012.5 - -
16/02:29pm 24.0 - - - - SE 32 35 17 19 1012.7 - -
16/02:00pm 24.0 - - - - SE 33 - 18 - - 1012.6 -
16/01:59pm 24.1 - - - - SE 33 37 18 20 1012.7 - -
16/01:29pm 24.2 - - - - SSE 30 33 16 18 1012.8 - -
16/01:00pm 24.2 - - - - SE 32 - 17 - - 1013.0 -
16/12:59pm 24.0 - - - - SSE 30 35 16 19 1013.1 - -
16/12:29pm 24.1 - - - - SSE 30 35 16 19 1013.3 - -
16/12:00pm 24.1 - - - - SE 28 - 15 - - 1013.4 -
16/11:59am 24.1 - - - - SE 30 35 16 19 1013.5 - -
16/11:29am 24.0 - - - - SE 30 39 16 21 1013.8 - -
16/11:00am 24.1 - - - - SE 32 - 17 - - 1013.8 -
16/10:59am 24.0 - - - - SE 30 35 16 19 1014.0 - -
16/10:29am 24.0 - - - - SE 32 35 17 19 1014.0 - -
16/10:00am 24.0 - - - - SE 32 - 17 - - 1014.0 -
16/09:59am 24.0 - - - - SE 32 35 17 19 1014.0 - -
16/09:29am 24.3 - - - - SE 33 39 18 21 1014.2 - -
16/09:00am 24.0 - - - - SE 35 - 19 - - 1014.2 -
16/08:59am 24.0 - - - - SE 35 43 19 23 1014.3 - -
16/08:29am 24.1 - - - - SE 33 39 18 21 1014.4 - -
16/08:00am 24.1 - - - - SE 32 - 17 - - 1014.2 -
16/07:59am 23.9 - - - - SE 33 37 18 20 1014.3 - -
16/07:29am 24.0 - - - - SE 35 43 19 23 1014.0 - -
16/07:00am 23.9 - - - - SE 37 - 20 - - 1013.8 -
16/06:59am 24.0 - - - - SE 37 43 20 23 1013.8 - -
16/06:29am 23.9 - - - - SE 37 43 20 23 1013.6 - -
16/06:00am 24.2 - - - - SE 35 - 19 - - 1013.4 -
16/05:59am 23.9 - - - - SE 35 41 19 22 1013.4 - -
16/05:29am 23.9 - - - - SE 35 41 19 22 1013.3 - -
16/05:00am 23.8 - - - - SE 35 - 19 - - 1012.9 -
16/04:59am 23.8 - - - - SE 35 41 19 22 1013.0 - -
16/04:29am 23.9 - - - - SE 37 41 20 22 1013.0 - -
16/04:00am 23.9 - - - - SE 35 - 19 - - 1012.9 -
16/03:59am 23.8 - - - - SE 35 39 19 21 1012.9 - -
16/03:29am 23.9 - - - - SE 33 39 18 21 1012.9 - -
16/03:00am 24.0 - - - - SE 33 - 18 - - 1012.7 -
16/02:59am 24.1 - - - - SE 33 37 18 20 1012.8 - -
16/02:29am 24.0 - - - - SE 35 41 19 22 1012.8 - -
16/02:00am 24.0 - - - - SE 35 - 19 - - 1012.7 -
16/01:59am 24.1 - - - - ESE 35 39 19 21 1012.8 - -
16/01:29am 24.2 - - - - SE 37 43 20 23 1013.0 - -
16/01:00am 23.9 - - - - SE 37 - 20 - - 1013.0 -
16/12:59am 24.0 - - - - SE 37 43 20 23 1013.2 - -
16/12:29am 24.0 - - - - ESE 37 43 20 23 1013.5 - -
16/12:00am 24.1 - - - - ESE 39 - 21 - - 1013.5 -
 
Date/Time
EST
Temp
°C
App
Temp
°C
Dew
Point
°C
Rel
Hum
%
Delta-T
°C
Wind Press
QNH
hPa
Press
MSL
hPa
Rain since
9am
mm
Dir  Spd
km/h
Gust
km/h
Spd
kts
Gust
kts
15/11:59pm 24.1 - - - - ESE 39 44 21 24 1013.7 - -
15/11:29pm 24.4 - - - - ESE 35 41 19 22 1014.2 - -
15/11:00pm 24.1 - - - - SE 35 - 19 - - 1014.4 -
15/10:59pm 24.0 - - - - SE 35 39 19 21 1014.5 - -
15/10:29pm 24.3 - - - - ESE 33 41 18 22 1015.0 - -
15/10:00pm 24.3 - - - - ESE 35 - 19 - - 1015.1 -
15/09:59pm 24.4 - - - - SE 37 43 20 23 1015.3 - -
15/09:29pm 24.4 - - - - ESE 37 41 20 22 1015.6 - -
15/09:00pm 24.4 - - - - SE 39 - 21 - - 1015.3 -
15/08:59pm 24.4 - - - - ESE 37 43 20 23 1015.3 - -
15/08:29pm 24.4 - - - - SE 37 43 20 23 1015.1 - -
15/08:00pm 24.5 - - - - SE 37 - 20 - - 1014.7 -
15/07:59pm 24.4 - - - - SE 37 41 20 22 1014.9 - -
15/07:29pm 24.4 - - - - SE 39 46 21 25 1014.7 - -
15/07:00pm 24.3 - - - - SE 39 - 21 - - 1014.5 -
15/06:59pm 24.5 - - - - ESE 39 44 21 24 1014.5 - -
15/06:29pm 24.3 - - - - SE 35 41 19 22 1014.2 - -
15/06:00pm 24.3 - - - - SE 39 - 21 - - 1013.9 -
15/05:59pm 24.3 - - - - SE 37 43 20 23 1014.0 - -
15/05:29pm 24.4 - - - - SE 35 39 19 21 1013.7 - -
15/05:00pm 24.4 - - - - ESE 37 - 20 - - 1013.4 -
15/04:59pm 24.4 - - - - ESE 37 43 20 23 1013.5 - -
15/04:29pm 24.3 - - - - SE 37 41 20 22 1013.2 - -
15/04:00pm 24.4 - - - - SE 37 - 20 - - 1013.1 -
15/03:59pm 24.3 - - - - SE 37 43 20 23 1013.1 - -
15/03:29pm 24.4 - - - - SE 37 44 20 24 1013.1 - -
15/03:00pm 24.3 - - - - SE 37 - 20 - - 1013.0 -
15/02:59pm 24.3 - - - - SE 37 46 20 25 1013.1 - -
15/02:29pm 24.4 - - - - ESE 37 43 20 23 1013.4 - -
15/02:00pm 24.3 - - - - SE 39 - 21 - - 1013.4 -
15/01:59pm 24.3 - - - - ESE 39 43 21 23 1013.5 - -
15/01:29pm 24.3 - - - - SE 41 46 22 25 1013.7 - -
15/01:00pm 24.3 - - - - SE 39 - 21 - - 1013.7 -
15/12:59pm 24.2 - - - - SE 41 46 22 25 1013.9 - -
15/12:29pm 24.3 - - - - SE 41 46 22 25 1014.4 - -
15/12:00pm 24.3 - - - - ESE 41 - 22 - - 1014.6 -
15/11:59am 24.3 - - - - ESE 41 46 22 25 1014.7 - -
15/11:29am 24.3 - - - - ESE 43 50 23 27 1014.9 - -
15/11:00am 24.1 - - - - SE 39 - 21 - - 1014.9 -
15/10:59am 23.5 - - - - SE 37 46 20 25 1015.3 - -
15/10:29am 23.7 - - - - SE 44 50 24 27 1015.3 - -
15/10:00am 23.5 - - - - SE 44 - 24 - - 1015.2 -
15/09:59am 23.4 - - - - SE 44 50 24 27 1015.5 - -
15/09:29am 23.9 - - - - SE 44 48 24 26 1015.6 - -
15/09:00am 23.8 - - - - SE 48 - 26 - - 1015.5 -
15/08:59am 23.6 - - - - SE 48 54 26 29 1015.5 - -
15/08:29am 23.6 - - - - SE 48 52 26 28 1015.7 - -
15/08:00am 23.7 - - - - SE 50 - 27 - - 1015.3 -
15/07:59am 23.7 - - - - SE 50 56 27 30 1015.3 - -
15/07:29am 23.7 - - - - SE 44 48 24 26 1015.3 - -
15/07:00am 24.4 - - - - ESE 39 - 21 - - 1015.1 -
15/06:59am 24.2 - - - - ESE 37 44 20 24 1015.2 - -
15/06:34am 22.9 - - - - ESE 43 61 23 33 1015.2 - -
15/06:33am 22.6 - - - - SSE 41 61 22 33 1014.9 - -
15/06:29am 23.0 - - - - SSE 37 43 20 23 1015.1 - -
15/06:00am 22.6 - - - - SSE 32 - 17 - - 1015.0 -
15/05:59am 22.4 - - - - SSE 33 39 18 21 1014.9 - -
15/05:29am 22.6 - - - - SE 43 48 23 26 1014.4 - -
15/05:00am 22.8 - - - - SE 43 - 23 - - 1013.9 -
15/04:59am 22.6 - - - - SE 43 48 23 26 1014.0 - -
15/04:29am 22.9 - - - - SE 43 48 23 26 1013.8 - -
15/04:00am 22.8 - - - - SE 39 - 21 - - 1013.4 -
15/03:59am 23.0 - - - - SE 41 44 22 24 1013.5 - -
15/03:29am 23.2 - - - - ESE 28 39 15 21 1013.4 - -

Other Formats:

Comma delimited format used in spreadsheet applications
http://www.bom.gov.au/fwo/IDQ60801/IDQ60801.94393.axf

JavaScript Object Notation format (JSON) in row-major order
http://www.bom.gov.au/fwo/IDQ60801/IDQ60801.94393.json